createdAt,value
2017-11-06T00:00:13.864Z,60.50
2017-11-06T00:02:43.004Z,61.00
2017-11-06T00:05:12.117Z,60.50
2017-11-06T00:07:40.488Z,60.50
2017-11-06T00:10:08.831Z,60.50
2017-11-06T00:12:37.175Z,60.60
2017-11-06T00:15:05.564Z,60.50
2017-11-06T00:17:33.892Z,60.40
2017-11-06T00:20:02.271Z,60.50
2017-11-06T00:22:30.596Z,60.40
2017-11-06T00:24:58.892Z,60.40
2017-11-06T00:27:27.257Z,60.50
2017-11-06T00:29:55.584Z,60.50
2017-11-06T00:32:23.951Z,60.40
2017-11-06T00:34:53.026Z,60.50
2017-11-06T00:37:21.373Z,60.40
2017-11-06T00:39:49.658Z,60.40
2017-11-06T00:42:18.010Z,60.50
2017-11-06T00:44:46.339Z,60.40
2017-11-06T00:47:14.501Z,60.40
2017-11-06T00:49:42.820Z,60.40
2017-11-06T00:52:11.171Z,60.30
2017-11-06T00:54:39.463Z,60.40
2017-11-06T00:57:07.769Z,60.30
2017-11-06T00:59:36.097Z,60.40
2017-11-06T01:02:04.421Z,60.30
2017-11-06T01:04:32.757Z,60.30
2017-11-06T01:07:01.099Z,60.40
2017-11-06T01:09:29.385Z,60.20
2017-11-06T01:11:57.731Z,60.30
2017-11-06T01:14:26.040Z,60.20
2017-11-06T01:16:54.387Z,60.20
2017-11-06T01:19:22.694Z,60.90
2017-11-06T01:21:51.060Z,60.20
2017-11-06T01:24:19.436Z,60.20
2017-11-06T01:26:47.729Z,60.20
2017-11-06T01:29:16.089Z,60.20
2017-11-06T01:31:44.455Z,60.30
2017-11-06T01:34:12.775Z,60.20
2017-11-06T01:36:41.066Z,60.20
2017-11-06T01:39:09.395Z,60.20
2017-11-06T01:41:37.799Z,60.10
2017-11-06T01:44:06.158Z,60.10
2017-11-06T01:46:34.503Z,60.10
2017-11-06T01:49:03.429Z,60.10
2017-11-06T01:51:31.733Z,60.10
2017-11-06T01:54:00.112Z,60.00
2017-11-06T01:56:28.455Z,60.20
2017-11-06T01:58:57.346Z,60.00
2017-11-06T02:01:25.658Z,60.00
2017-11-06T02:03:53.949Z,60.00
2017-11-06T02:06:22.928Z,60.00
2017-11-06T02:08:51.271Z,60.00
2017-11-06T02:11:19.592Z,60.00
2017-11-06T02:13:48.640Z,60.00
2017-11-06T02:16:16.921Z,60.00
2017-11-06T02:18:45.276Z,60.00
2017-11-06T02:21:15.085Z,60.10
2017-11-06T02:23:43.464Z,60.00
2017-11-06T02:26:11.770Z,60.00
2017-11-06T02:28:40.096Z,60.00
2017-11-06T02:31:08.396Z,60.00
2017-11-06T02:33:37.471Z,60.00
2017-11-06T02:36:05.797Z,59.90
2017-11-06T02:38:34.101Z,60.00
2017-11-06T02:41:02.256Z,59.90
2017-11-06T02:43:30.622Z,60.00
2017-11-06T02:45:58.947Z,59.90
2017-11-06T02:48:27.257Z,59.90
2017-11-06T02:50:55.621Z,59.90
2017-11-06T02:53:23.911Z,59.90
2017-11-06T02:55:53.003Z,59.80
2017-11-06T02:58:21.311Z,59.80
2017-11-06T03:00:49.663Z,59.80
2017-11-06T03:03:18.786Z,59.80
2017-11-06T03:05:47.087Z,59.80
2017-11-06T03:08:15.438Z,59.90
2017-11-06T03:10:43.816Z,59.80
2017-11-06T03:13:12.297Z,59.80
2017-11-06T03:15:40.629Z,59.80
2017-11-06T03:18:08.957Z,59.80
2017-11-06T03:20:37.253Z,59.80
2017-11-06T03:23:05.583Z,59.80
2017-11-06T03:25:34.421Z,59.80
2017-11-06T03:28:02.778Z,59.80
2017-11-06T03:30:31.097Z,59.80
2017-11-06T03:32:59.502Z,59.80
2017-11-06T03:35:28.651Z,59.80
2017-11-06T03:37:57.001Z,59.80
2017-11-06T03:40:25.377Z,59.80
2017-11-06T03:42:53.691Z,59.80
2017-11-06T03:45:22.293Z,59.70
2017-11-06T03:47:50.661Z,59.80
2017-11-06T03:50:18.994Z,59.70
2017-11-06T03:52:47.303Z,59.70
2017-11-06T03:55:15.703Z,59.70
2017-11-06T03:57:44.033Z,59.70
2017-11-06T04:00:13.179Z,59.70
2017-11-06T04:02:41.501Z,59.70
2017-11-06T04:05:10.025Z,59.70
2017-11-06T04:07:38.364Z,59.70
2017-11-06T04:10:07.459Z,59.70
2017-11-06T04:12:36.597Z,59.80
2017-11-06T04:15:04.938Z,59.70
2017-11-06T04:17:34.065Z,59.70
2017-11-06T04:20:02.921Z,59.70
2017-11-06T04:22:31.348Z,59.70
2017-11-06T04:24:59.704Z,59.70
2017-11-06T04:27:28.086Z,59.60
2017-11-06T04:29:56.463Z,59.70
2017-11-06T04:32:24.838Z,59.60
2017-11-06T04:34:53.191Z,59.60
2017-11-06T04:37:22.316Z,59.60
2017-11-06T04:39:50.696Z,59.60
2017-11-06T04:42:18.995Z,59.60
2017-11-06T04:44:47.347Z,59.70
2017-11-06T04:47:16.325Z,59.60
2017-11-06T04:49:45.422Z,59.60
2017-11-06T04:52:13.765Z,59.60
2017-11-06T04:54:42.094Z,59.60
2017-11-06T04:57:10.571Z,59.60
2017-11-06T04:59:38.908Z,59.60
2017-11-06T05:02:07.286Z,59.60
2017-11-06T05:04:35.641Z,59.60
2017-11-06T05:07:03.988Z,59.60
2017-11-06T05:09:32.448Z,59.60
2017-11-06T05:12:00.747Z,59.50
2017-11-06T05:14:29.158Z,59.60
2017-11-06T05:16:57.457Z,60.10
2017-11-06T05:19:26.250Z,59.50
2017-11-06T05:21:54.622Z,59.50
2017-11-06T05:24:22.927Z,59.60
2017-11-06T05:26:51.226Z,59.60
2017-11-06T05:29:19.551Z,59.60
2017-11-06T05:31:47.879Z,59.60
2017-11-06T05:34:16.181Z,59.60
2017-11-06T05:36:44.534Z,59.50
2017-11-06T05:39:12.831Z,59.50
2017-11-06T05:41:41.039Z,59.40
2017-11-06T05:44:09.154Z,59.50
2017-11-06T05:46:38.187Z,59.50
2017-11-06T05:49:06.475Z,59.40
2017-11-06T05:51:34.829Z,59.50
2017-11-06T05:54:03.876Z,59.30
2017-11-06T05:56:33.022Z,59.70
2017-11-06T05:59:01.331Z,59.40
2017-11-06T06:01:29.626Z,59.40
2017-11-06T06:03:57.985Z,59.40
2017-11-06T06:06:26.285Z,59.40
2017-11-06T06:08:55.487Z,59.70
2017-11-06T06:11:23.859Z,59.40
2017-11-06T06:13:52.191Z,59.50
2017-11-06T06:16:20.544Z,59.40
2017-11-06T06:18:49.167Z,59.40
2017-11-06T06:21:17.570Z,59.40
2017-11-06T06:23:45.899Z,59.50
2017-11-06T06:26:14.234Z,59.30
2017-11-06T06:28:42.706Z,59.40
2017-11-06T06:31:11.019Z,59.30
2017-11-06T06:33:39.332Z,59.30
2017-11-06T06:36:07.684Z,59.30
2017-11-06T06:38:36.147Z,59.30
2017-11-06T06:41:05.598Z,59.30
2017-11-06T06:43:33.901Z,59.30
2017-11-06T06:46:04.496Z,59.30
2017-11-06T06:48:33.255Z,59.80
2017-11-06T06:51:01.682Z,59.30
2017-11-06T06:53:30.060Z,59.40
2017-11-06T06:55:58.359Z,59.30
2017-11-06T06:58:26.681Z,59.30
2017-11-06T07:00:55.028Z,59.30
2017-11-06T07:03:24.108Z,59.30
2017-11-06T07:05:52.595Z,59.30
2017-11-06T07:08:20.931Z,59.30
2017-11-06T07:10:49.360Z,59.40
2017-11-06T07:13:17.917Z,59.40
2017-11-06T07:15:46.296Z,59.30
2017-11-06T07:18:16.006Z,59.30
2017-11-06T07:20:45.174Z,59.30
2017-11-06T07:23:13.613Z,59.30
2017-11-06T07:25:42.865Z,59.30
2017-11-06T07:28:11.054Z,59.20
2017-11-06T07:30:39.410Z,59.30
2017-11-06T07:33:07.752Z,59.20
2017-11-06T07:35:36.274Z,59.20
2017-11-06T07:38:04.651Z,59.20
2017-11-06T07:40:33.014Z,59.20
2017-11-06T07:43:01.375Z,59.30
2017-11-06T07:45:30.059Z,59.30
2017-11-06T07:47:58.472Z,59.20
2017-11-06T07:50:26.799Z,59.20
2017-11-06T07:52:55.239Z,59.10
2017-11-06T07:55:23.552Z,59.10
2017-11-06T07:57:51.910Z,59.10
2017-11-06T08:00:20.287Z,59.00
2017-11-06T08:02:48.604Z,59.10
2017-11-06T08:05:17.732Z,59.10
2017-11-06T08:07:46.078Z,59.00
2017-11-06T08:10:14.443Z,59.10
2017-11-06T08:12:43.684Z,59.10
2017-11-06T08:15:12.030Z,59.10
2017-11-06T08:17:41.188Z,59.30
2017-11-06T08:20:09.542Z,59.10
2017-11-06T08:22:37.878Z,59.10
2017-11-06T08:25:06.037Z,59.10
2017-11-06T08:27:34.398Z,59.10
2017-11-06T08:30:02.752Z,59.10
2017-11-06T08:32:31.540Z,59.10
2017-11-06T08:35:00.255Z,59.00
2017-11-06T08:37:28.604Z,59.00
2017-11-06T08:39:56.946Z,59.00
2017-11-06T08:42:26.181Z,59.00
2017-11-06T08:44:54.538Z,59.00
2017-11-06T08:47:22.912Z,59.00
2017-11-06T08:49:51.975Z,59.00
2017-11-06T08:52:20.416Z,58.90
2017-11-06T08:54:48.757Z,59.00
2017-11-06T08:57:17.112Z,59.60
2017-11-06T08:59:45.413Z,58.90
2017-11-06T09:02:14.570Z,59.00
2017-11-06T09:04:42.911Z,58.90
2017-11-06T09:07:11.249Z,58.90
2017-11-06T09:09:39.620Z,59.00
2017-11-06T09:12:07.975Z,58.90
2017-11-06T09:14:36.332Z,58.90
2017-11-06T09:17:04.434Z,58.90
2017-11-06T09:19:32.778Z,58.90
2017-11-06T09:22:01.163Z,58.90
2017-11-06T09:24:29.542Z,58.90
2017-11-06T09:26:57.868Z,58.90
2017-11-06T09:29:26.215Z,58.90
2017-11-06T09:31:54.513Z,58.90
2017-11-06T09:34:22.848Z,58.90
2017-11-06T09:36:51.181Z,58.90
2017-11-06T09:39:19.520Z,58.90
2017-11-06T09:41:47.904Z,58.80
2017-11-06T09:44:16.274Z,58.80
2017-11-06T09:46:44.692Z,58.70
2017-11-06T09:49:13.446Z,58.80
2017-11-06T09:51:41.759Z,58.80
2017-11-06T09:54:10.093Z,58.70
2017-11-06T09:56:38.448Z,58.70
2017-11-06T09:59:07.529Z,58.80
2017-11-06T10:01:35.979Z,58.70
2017-11-06T10:04:04.402Z,58.80
2017-11-06T10:06:34.256Z,58.70
2017-11-06T10:09:02.579Z,58.70
2017-11-06T10:11:30.968Z,58.80
2017-11-06T10:13:59.295Z,58.80
2017-11-06T10:16:27.596Z,58.70
2017-11-06T10:18:55.963Z,58.70
2017-11-06T10:21:24.291Z,58.70
2017-11-06T10:23:53.407Z,58.70
2017-11-06T10:26:21.779Z,58.70
2017-11-06T10:28:50.136Z,58.70
2017-11-06T10:31:19.213Z,58.80
2017-11-06T10:33:49.076Z,58.70
2017-11-06T10:36:17.454Z,58.70
2017-11-06T10:38:45.858Z,58.70
2017-11-06T10:41:14.244Z,58.70
2017-11-06T10:43:42.598Z,58.70
2017-11-06T10:46:10.968Z,58.70
2017-11-06T10:48:39.476Z,58.60
2017-11-06T10:51:07.882Z,58.60
2017-11-06T10:53:36.234Z,58.70
2017-11-06T10:56:04.563Z,58.70
2017-11-06T10:58:33.741Z,58.70
2017-11-06T11:01:02.113Z,58.60
2017-11-06T11:03:30.452Z,58.70
2017-11-06T11:05:58.822Z,58.70
2017-11-06T11:08:27.166Z,58.60
2017-11-06T11:10:55.500Z,58.70
2017-11-06T11:13:23.643Z,58.60
2017-11-06T11:15:52.744Z,58.50
2017-11-06T11:18:21.115Z,58.50
2017-11-06T11:20:50.245Z,58.50
2017-11-06T11:23:18.593Z,58.50
2017-11-06T11:25:47.803Z,58.40
2017-11-06T11:28:16.128Z,58.50
2017-11-06T11:30:44.478Z,58.50
2017-11-06T11:33:12.836Z,58.50
2017-11-06T11:35:42.389Z,58.50
2017-11-06T11:38:10.699Z,58.60
2017-11-06T11:40:38.545Z,58.60
2017-11-06T11:43:06.887Z,58.60
2017-11-06T11:45:35.242Z,58.50
2017-11-06T11:48:03.671Z,58.50
2017-11-06T11:50:32.687Z,58.50
2017-11-06T11:53:01.019Z,58.50
2017-11-06T11:55:30.319Z,58.50
2017-11-06T11:57:58.665Z,58.50
2017-11-06T12:00:26.973Z,58.50
2017-11-06T12:02:55.327Z,58.50
2017-11-06T12:05:23.726Z,58.50
2017-11-06T12:07:52.294Z,58.30
2017-11-06T12:10:20.694Z,58.40
2017-11-06T12:12:49.089Z,58.40
2017-11-06T12:15:17.431Z,58.30
2017-11-06T12:17:45.823Z,58.30
2017-11-06T12:20:14.799Z,58.40
2017-11-06T12:22:43.120Z,58.40
2017-11-06T12:25:11.496Z,58.40
2017-11-06T12:27:39.926Z,58.40
2017-11-06T12:30:08.314Z,58.30
2017-11-06T12:32:36.665Z,58.30
2017-11-06T12:35:05.013Z,58.40
2017-11-06T12:37:33.322Z,58.50
2017-11-06T12:40:01.667Z,58.40
2017-11-06T12:42:30.032Z,58.40
2017-11-06T12:44:58.424Z,58.40
2017-11-06T12:47:26.732Z,59.00
2017-11-06T12:49:55.033Z,58.30
2017-11-06T12:52:23.414Z,58.30
2017-11-06T12:54:51.949Z,58.30
2017-11-06T12:57:20.280Z,58.30
2017-11-06T12:59:49.370Z,58.30
2017-11-06T13:02:18.466Z,58.30
2017-11-06T13:04:46.807Z,58.30
2017-11-06T13:07:15.165Z,58.30
2017-11-06T13:09:43.502Z,58.30
2017-11-06T13:12:11.854Z,58.30
2017-11-06T13:14:40.172Z,58.20
2017-11-06T13:17:08.549Z,58.20
2017-11-06T13:19:36.900Z,58.30
2017-11-06T13:22:06.812Z,58.30
2017-11-06T13:24:35.964Z,58.90
2017-11-06T13:27:04.275Z,58.20
2017-11-06T13:29:32.620Z,58.20
2017-11-06T13:32:00.945Z,58.20
2017-11-06T13:34:29.346Z,58.20
2017-11-06T13:36:57.703Z,58.20
2017-11-06T13:39:27.443Z,58.20
2017-11-06T13:41:55.983Z,58.20
2017-11-06T13:44:24.373Z,58.20
2017-11-06T13:46:53.555Z,58.20
2017-11-06T13:49:21.927Z,58.10
2017-11-06T13:51:50.400Z,58.20
2017-11-06T13:54:18.759Z,58.20
2017-11-06T13:56:47.089Z,58.20
2017-11-06T13:59:15.466Z,58.20
2017-11-06T14:01:44.696Z,58.20
2017-11-06T14:04:13.459Z,58.10
2017-11-06T14:06:42.636Z,58.10
2017-11-06T14:09:11.189Z,58.10
2017-11-06T14:11:40.022Z,58.10
2017-11-06T14:14:08.432Z,58.10
2017-11-06T14:16:36.821Z,58.10
2017-11-06T14:19:05.149Z,58.10
2017-11-06T14:21:33.542Z,58.10
2017-11-06T14:24:02.665Z,58.10
2017-11-06T14:26:32.715Z,58.00
2017-11-06T14:29:01.072Z,58.10
2017-11-06T14:31:29.511Z,58.10
2017-11-06T14:33:57.909Z,58.10
2017-11-06T14:36:27.156Z,58.10
2017-11-06T14:38:57.065Z,58.00
2017-11-06T14:41:25.444Z,58.00
2017-11-06T14:43:53.735Z,58.00
2017-11-06T14:46:22.137Z,58.10
2017-11-06T14:48:50.476Z,58.60
2017-11-06T14:51:18.856Z,58.10
2017-11-06T14:53:47.354Z,58.00
2017-11-06T14:56:15.656Z,58.00
2017-11-06T14:58:44.752Z,58.00
2017-11-06T15:01:13.619Z,58.00
2017-11-06T15:03:41.819Z,58.00
2017-11-06T15:06:10.222Z,58.00
2017-11-06T15:08:39.348Z,58.00
2017-11-06T15:11:08.442Z,58.00
2017-11-06T15:13:36.750Z,57.90
2017-11-06T15:16:05.096Z,58.00
2017-11-06T15:18:33.479Z,58.00
2017-11-06T15:21:01.823Z,57.90
2017-11-06T15:23:30.927Z,58.00
2017-11-06T15:26:00.082Z,58.00
2017-11-06T15:28:28.431Z,58.00
2017-11-06T15:30:58.386Z,58.00
2017-11-06T15:33:26.717Z,58.00
2017-11-06T15:35:55.104Z,58.00
2017-11-06T15:38:23.448Z,58.00
2017-11-06T15:40:52.577Z,57.90
2017-11-06T15:43:21.040Z,57.90
2017-11-06T15:45:49.664Z,58.00
2017-11-06T15:48:18.808Z,57.90
2017-11-06T15:50:47.926Z,57.90
2017-11-06T15:53:16.307Z,57.90
2017-11-06T15:55:44.175Z,57.90
2017-11-06T15:58:12.578Z,58.50
2017-11-06T16:00:40.941Z,58.00
2017-11-06T16:03:09.299Z,58.00
2017-11-06T16:05:38.496Z,57.90
2017-11-06T16:08:06.910Z,58.00
2017-11-06T16:10:35.279Z,57.80
2017-11-06T16:13:03.637Z,57.80
2017-11-06T16:15:32.034Z,57.90
2017-11-06T16:18:00.547Z,57.90
2017-11-06T16:20:28.936Z,57.80
2017-11-06T16:22:57.480Z,57.90
2017-11-06T16:25:25.889Z,57.90
2017-11-06T16:27:54.240Z,57.80
2017-11-06T16:30:22.723Z,58.40
2017-11-06T16:32:51.082Z,57.70
2017-11-06T16:35:19.422Z,57.70
2017-11-06T16:37:47.823Z,57.70
2017-11-06T16:40:16.210Z,57.80
2017-11-06T16:42:44.695Z,57.80
2017-11-06T16:45:12.995Z,57.70
2017-11-06T16:47:41.350Z,57.80
2017-11-06T16:50:09.743Z,57.70
2017-11-06T16:52:38.109Z,57.70
2017-11-06T16:55:06.442Z,57.80
2017-11-06T16:57:34.811Z,57.80
2017-11-06T17:00:03.255Z,57.80
2017-11-06T17:02:31.621Z,57.80
2017-11-06T17:05:00.152Z,57.80
2017-11-06T17:07:28.551Z,57.70
2017-11-06T17:09:56.943Z,57.70
2017-11-06T17:12:26.061Z,57.70
2017-11-06T17:14:54.236Z,57.70
2017-11-06T17:17:22.540Z,57.70
2017-11-06T17:19:51.193Z,57.70
2017-11-06T17:22:19.600Z,57.70
2017-11-06T17:24:47.949Z,57.70
2017-11-06T17:27:17.475Z,57.70
2017-11-06T17:29:45.775Z,57.70
2017-11-06T17:32:14.350Z,57.70
2017-11-06T17:34:43.244Z,57.70
2017-11-06T17:37:11.597Z,57.70
2017-11-06T17:39:40.048Z,57.70
2017-11-06T17:42:08.452Z,57.70
2017-11-06T17:44:36.805Z,57.70
2017-11-06T17:47:05.180Z,57.70
2017-11-06T17:49:33.485Z,57.70
2017-11-06T17:52:02.715Z,57.70
2017-11-06T17:54:32.830Z,57.70
2017-11-06T17:57:01.685Z,57.70
2017-11-06T17:59:30.822Z,57.70
2017-11-06T18:01:59.752Z,57.70
2017-11-06T18:04:28.191Z,57.70
2017-11-06T18:06:56.543Z,57.70
2017-11-06T18:09:24.963Z,57.70
2017-11-06T18:11:53.950Z,57.70
2017-11-06T18:14:22.271Z,57.70
2017-11-06T18:16:50.672Z,57.70
2017-11-06T18:19:19.003Z,57.70
2017-11-06T18:21:47.462Z,57.70
2017-11-06T18:24:15.931Z,58.30
2017-11-06T18:26:44.852Z,57.70
2017-11-06T18:29:13.196Z,57.70
2017-11-06T18:31:41.716Z,57.70
2017-11-06T18:34:10.059Z,57.70
2017-11-06T18:36:38.390Z,57.80
2017-11-06T18:39:07.422Z,57.80
2017-11-06T18:41:35.764Z,57.70
2017-11-06T18:44:04.116Z,57.70
2017-11-06T18:46:32.547Z,57.70
2017-11-06T18:49:01.761Z,57.70
2017-11-06T18:51:30.140Z,57.60
2017-11-06T18:53:58.493Z,57.70
2017-11-06T18:56:26.882Z,57.70
2017-11-06T18:58:55.234Z,57.60
2017-11-06T19:01:23.639Z,57.70
2017-11-06T19:03:51.964Z,57.70
2017-11-06T19:06:20.319Z,57.60
2017-11-06T19:08:48.914Z,57.70
2017-11-06T19:11:17.266Z,57.60
2017-11-06T19:13:45.441Z,57.60
2017-11-06T19:16:13.895Z,57.60
2017-11-06T19:18:43.028Z,57.70
2017-11-06T19:21:11.410Z,57.60
2017-11-06T19:23:40.365Z,57.60
2017-11-06T19:26:08.886Z,57.70
2017-11-06T19:28:37.382Z,57.70
2017-11-06T19:31:05.702Z,57.60
2017-11-06T19:33:34.027Z,57.70
2017-11-06T19:36:02.590Z,57.60
2017-11-06T19:38:30.935Z,57.60
2017-11-06T19:40:59.266Z,57.60
2017-11-06T19:43:27.648Z,57.70
2017-11-06T19:45:55.998Z,57.70
2017-11-06T19:48:24.444Z,57.60
2017-11-06T19:50:52.837Z,58.20
2017-11-06T19:53:21.137Z,57.60
2017-11-06T19:55:49.495Z,57.50
2017-11-06T19:58:18.609Z,57.60
2017-11-06T20:00:47.239Z,57.60
2017-11-06T20:03:15.620Z,57.60
2017-11-06T20:05:43.934Z,57.60
2017-11-06T20:08:12.333Z,57.60
2017-11-06T20:10:40.795Z,57.60
2017-11-06T20:13:09.235Z,57.60
2017-11-06T20:15:38.160Z,57.70
2017-11-06T20:18:06.465Z,57.70
2017-11-06T20:20:34.825Z,57.70
2017-11-06T20:23:03.194Z,57.70
2017-11-06T20:25:31.495Z,57.70
2017-11-06T20:27:59.850Z,57.70
2017-11-06T20:30:28.220Z,57.70
2017-11-06T20:32:56.636Z,57.60
2017-11-06T20:35:25.132Z,57.60
2017-11-06T20:37:54.666Z,57.60
2017-11-06T20:40:23.042Z,57.70
2017-11-06T20:42:51.442Z,57.70
2017-11-06T20:45:19.806Z,57.60
2017-11-06T20:47:48.201Z,57.50
2017-11-06T20:50:16.592Z,57.60
2017-11-06T20:52:44.970Z,57.60
2017-11-06T20:55:13.330Z,57.60
2017-11-06T20:57:41.715Z,57.60
2017-11-06T21:00:10.446Z,57.60
2017-11-06T21:02:39.052Z,57.50
2017-11-06T21:05:07.463Z,57.50
2017-11-06T21:07:36.948Z,57.50
2017-11-06T21:10:05.304Z,57.40
2017-11-06T21:12:33.613Z,57.50
2017-11-06T21:15:03.157Z,57.60
2017-11-06T21:17:31.532Z,57.60
2017-11-06T21:19:59.886Z,57.60
2017-11-06T21:22:28.257Z,57.50
2017-11-06T21:24:56.622Z,57.50
2017-11-06T21:27:25.022Z,57.50
2017-11-06T21:29:58.940Z,57.70
2017-11-06T21:32:27.988Z,57.50
2017-11-06T21:34:56.148Z,57.50
2017-11-06T21:37:24.608Z,57.50
2017-11-06T21:39:52.932Z,57.50
2017-11-06T21:42:21.105Z,57.40
2017-11-06T21:44:49.476Z,57.40
2017-11-06T21:47:17.791Z,57.50
2017-11-06T21:49:46.189Z,57.50
2017-11-06T21:52:14.481Z,57.50
2017-11-06T21:54:43.601Z,57.50
2017-11-06T21:57:12.707Z,57.50
2017-11-06T21:59:41.032Z,57.50
2017-11-06T22:02:09.382Z,57.50
2017-11-06T22:04:37.859Z,57.50
2017-11-06T22:07:06.176Z,57.50
2017-11-06T22:09:34.518Z,57.50
2017-11-06T22:12:02.864Z,57.50
2017-11-06T22:14:31.271Z,57.50
2017-11-06T22:16:59.681Z,57.50
2017-11-06T22:19:28.079Z,57.50
2017-11-06T22:21:56.425Z,57.50
2017-11-06T22:24:24.723Z,57.50
2017-11-06T22:26:53.063Z,57.50
2017-11-06T22:29:21.181Z,58.00
2017-11-06T22:31:49.576Z,57.50
2017-11-06T22:34:17.894Z,57.40
2017-11-06T22:36:46.284Z,57.40
2017-11-06T22:39:14.621Z,57.40
2017-11-06T22:41:42.982Z,57.40
2017-11-06T22:44:11.339Z,57.40
2017-11-06T22:46:40.823Z,57.40
2017-11-06T22:49:09.260Z,57.40
2017-11-06T22:51:37.643Z,57.40
2017-11-06T22:54:05.983Z,57.40
2017-11-06T22:56:34.376Z,57.40
2017-11-06T22:59:02.691Z,57.40
2017-11-06T23:01:31.057Z,57.40
2017-11-06T23:03:59.375Z,57.40
2017-11-06T23:06:27.752Z,57.40
2017-11-06T23:08:56.115Z,57.40
2017-11-06T23:11:24.417Z,57.40
2017-11-06T23:13:52.811Z,57.40
2017-11-06T23:16:21.189Z,57.40
2017-11-06T23:18:49.517Z,57.40
2017-11-06T23:21:17.855Z,57.30
2017-11-06T23:23:46.208Z,57.30
2017-11-06T23:26:14.527Z,57.30
2017-11-06T23:28:42.892Z,57.30
2017-11-06T23:31:11.261Z,57.30
2017-11-06T23:33:39.587Z,57.30
2017-11-06T23:36:07.912Z,57.30
2017-11-06T23:38:36.342Z,57.30
2017-11-06T23:41:04.705Z,57.30
2017-11-06T23:43:33.081Z,57.30
2017-11-06T23:46:01.381Z,57.30
2017-11-06T23:48:29.695Z,57.40
2017-11-06T23:50:57.846Z,57.40
2017-11-06T23:53:26.202Z,57.70
2017-11-06T23:55:54.384Z,57.30
2017-11-06T23:58:22.548Z,57.30
